sensor_id;sensor_type;location;lat;lon;timestamp;P1;durP1;ratioP1;P2;durP2;ratioP2
59880;SDS011;45751;51.380;10.326;2023-01-30T00:01:43;5.32;;;2.00;;
59880;SDS011;45751;51.380;10.326;2023-01-30T00:04:11;5.38;;;2.28;;
59880;SDS011;45751;51.380;10.326;2023-01-30T00:06:42;6.63;;;2.53;;
59880;SDS011;45751;51.380;10.326;2023-01-30T00:09:11;9.82;;;2.65;;
59880;SDS011;45751;51.380;10.326;2023-01-30T00:11:40;3.90;;;1.40;;
59880;SDS011;45751;51.380;10.326;2023-01-30T00:14:07;8.77;;;2.67;;
59880;SDS011;45751;51.380;10.326;2023-01-30T00:16:34;4.32;;;1.77;;
59880;SDS011;45751;51.380;10.326;2023-01-30T00:19:01;2.70;;;0.90;;
59880;SDS011;45751;51.380;10.326;2023-01-30T00:21:28;5.63;;;1.85;;
59880;SDS011;45751;51.380;10.326;2023-01-30T00:23:55;3.28;;;1.77;;
59880;SDS011;45751;51.380;10.326;2023-01-30T00:26:22;4.45;;;1.63;;
59880;SDS011;45751;51.380;10.326;2023-01-30T00:28:48;4.78;;;2.00;;
59880;SDS011;45751;51.380;10.326;2023-01-30T00:31:15;3.80;;;1.70;;
59880;SDS011;45751;51.380;10.326;2023-01-30T00:33:42;6.65;;;2.42;;
59880;SDS011;45751;51.380;10.326;2023-01-30T00:36:09;6.28;;;2.58;;
59880;SDS011;45751;51.380;10.326;2023-01-30T00:38:36;3.95;;;2.03;;
59880;SDS011;45751;51.380;10.326;2023-01-30T00:41:06;6.40;;;2.33;;
59880;SDS011;45751;51.380;10.326;2023-01-30T00:43:36;3.47;;;1.27;;
59880;SDS011;45751;51.380;10.326;2023-01-30T00:46:31;5.18;;;1.55;;
59880;SDS011;45751;51.380;10.326;2023-01-30T00:49:18;3.67;;;1.75;;
59880;SDS011;45751;51.380;10.326;2023-01-30T00:51:45;7.90;;;3.15;;
59880;SDS011;45751;51.380;10.326;2023-01-30T00:54:12;5.60;;;1.88;;
59880;SDS011;45751;51.380;10.326;2023-01-30T00:56:39;6.18;;;2.28;;
59880;SDS011;45751;51.380;10.326;2023-01-30T00:59:06;5.85;;;2.58;;
59880;SDS011;45751;51.380;10.326;2023-01-30T01:01:33;6.97;;;3.15;;
59880;SDS011;45751;51.380;10.326;2023-01-30T01:04:00;5.80;;;2.13;;
59880;SDS011;45751;51.380;10.326;2023-01-30T01:06:27;6.05;;;2.22;;
59880;SDS011;45751;51.380;10.326;2023-01-30T01:08:55;6.68;;;3.03;;
59880;SDS011;45751;51.380;10.326;2023-01-30T01:11:21;7.53;;;2.75;;
59880;SDS011;45751;51.380;10.326;2023-01-30T01:13:56;4.63;;;2.50;;
59880;SDS011;45751;51.380;10.326;2023-01-30T01:16:26;5.43;;;2.92;;
59880;SDS011;45751;51.380;10.326;2023-01-30T01:18:56;8.90;;;3.80;;
59880;SDS011;45751;51.380;10.326;2023-01-30T01:21:24;11.80;;;5.00;;
59880;SDS011;45751;51.380;10.326;2023-01-30T01:23:52;6.20;;;3.53;;
59880;SDS011;45751;51.380;10.326;2023-01-30T01:26:21;7.15;;;3.45;;
59880;SDS011;45751;51.380;10.326;2023-01-30T01:28:48;6.70;;;3.63;;
59880;SDS011;45751;51.380;10.326;2023-01-30T01:31:16;4.65;;;2.00;;
59880;SDS011;45751;51.380;10.326;2023-01-30T01:33:43;3.80;;;1.75;;
59880;SDS011;45751;51.380;10.326;2023-01-30T01:36:10;17.85;;;3.13;;
59880;SDS011;45751;51.380;10.326;2023-01-30T01:38:45;10.48;;;3.63;;
59880;SDS011;45751;51.380;10.326;2023-01-30T01:41:12;9.43;;;3.10;;
59880;SDS011;45751;51.380;10.326;2023-01-30T01:44:01;6.22;;;3.15;;
59880;SDS011;45751;51.380;10.326;2023-01-30T01:46:34;9.27;;;3.85;;
59880;SDS011;45751;51.380;10.326;2023-01-30T01:49:22;5.20;;;1.83;;
59880;SDS011;45751;51.380;10.326;2023-01-30T01:54:55;4.50;;;1.85;;
59880;SDS011;45751;51.380;10.326;2023-01-30T01:57:35;5.65;;;2.40;;
59880;SDS011;45751;51.380;10.326;2023-01-30T02:00:16;10.88;;;2.88;;
59880;SDS011;45751;51.380;10.326;2023-01-30T02:02:50;9.27;;;4.85;;
59880;SDS011;45751;51.380;10.326;2023-01-30T02:05:22;7.78;;;3.05;;
59880;SDS011;45751;51.380;10.326;2023-01-30T02:10:39;13.00;;;4.85;;
59880;SDS011;45751;51.380;10.326;2023-01-30T02:13:15;10.45;;;3.05;;
59880;SDS011;45751;51.380;10.326;2023-01-30T02:15:43;6.88;;;3.30;;
59880;SDS011;45751;51.380;10.326;2023-01-30T02:18:11;6.38;;;2.67;;
59880;SDS011;45751;51.380;10.326;2023-01-30T02:23:29;7.40;;;2.60;;
59880;SDS011;45751;51.380;10.326;2023-01-30T02:34:58;7.50;;;2.75;;
59880;SDS011;45751;51.380;10.326;2023-01-30T02:48:29;6.97;;;2.10;;
59880;SDS011;45751;51.380;10.326;2023-01-30T02:51:04;7.53;;;2.45;;
59880;SDS011;45751;51.380;10.326;2023-01-30T02:53:35;9.30;;;2.53;;
59880;SDS011;45751;51.380;10.326;2023-01-30T02:56:03;11.07;;;3.13;;
59880;SDS011;45751;51.380;10.326;2023-01-30T02:58:41;6.00;;;2.63;;
59880;SDS011;45751;51.380;10.326;2023-01-30T03:09:24;6.68;;;2.22;;
59880;SDS011;45751;51.380;10.326;2023-01-30T03:12:05;7.20;;;3.45;;
59880;SDS011;45751;51.380;10.326;2023-01-30T03:17:17;6.28;;;1.80;;
59880;SDS011;45751;51.380;10.326;2023-01-30T03:19:46;13.73;;;4.78;;
59880;SDS011;45751;51.380;10.326;2023-01-30T03:22:14;7.15;;;3.45;;
59880;SDS011;45751;51.380;10.326;2023-01-30T03:24:42;10.50;;;3.85;;
59880;SDS011;45751;51.380;10.326;2023-01-30T03:27:12;13.93;;;4.75;;
59880;SDS011;45751;51.380;10.326;2023-01-30T03:29:40;11.68;;;4.13;;
59880;SDS011;45751;51.380;10.326;2023-01-30T03:32:06;7.43;;;2.80;;
59880;SDS011;45751;51.380;10.326;2023-01-30T03:34:33;9.77;;;3.35;;
59880;SDS011;45751;51.380;10.326;2023-01-30T03:37:00;10.52;;;3.50;;
59880;SDS011;45751;51.380;10.326;2023-01-30T03:39:32;12.35;;;5.07;;
59880;SDS011;45751;51.380;10.326;2023-01-30T03:41:59;11.18;;;4.28;;
59880;SDS011;45751;51.380;10.326;2023-01-30T03:44:26;7.72;;;3.15;;
59880;SDS011;45751;51.380;10.326;2023-01-30T03:46:53;10.20;;;3.92;;
59880;SDS011;45751;51.380;10.326;2023-01-30T03:49:21;7.60;;;3.50;;
59880;SDS011;45751;51.380;10.326;2023-01-30T03:51:48;9.75;;;3.60;;
59880;SDS011;45751;51.380;10.326;2023-01-30T03:54:15;5.80;;;3.17;;
59880;SDS011;45751;51.380;10.326;2023-01-30T03:56:42;8.02;;;3.67;;
59880;SDS011;45751;51.380;10.326;2023-01-30T03:59:09;5.63;;;2.65;;
59880;SDS011;45751;51.380;10.326;2023-01-30T04:01:43;8.40;;;2.78;;
59880;SDS011;45751;51.380;10.326;2023-01-30T04:04:10;12.43;;;3.13;;
59880;SDS011;45751;51.380;10.326;2023-01-30T04:06:36;5.90;;;2.22;;
59880;SDS011;45751;51.380;10.326;2023-01-30T04:09:03;10.30;;;4.35;;
59880;SDS011;45751;51.380;10.326;2023-01-30T04:11:37;6.07;;;3.15;;
59880;SDS011;45751;51.380;10.326;2023-01-30T04:14:04;5.85;;;3.22;;
59880;SDS011;45751;51.380;10.326;2023-01-30T04:16:36;5.63;;;2.00;;
59880;SDS011;45751;51.380;10.326;2023-01-30T04:19:22;11.00;;;5.28;;
59880;SDS011;45751;51.380;10.326;2023-01-30T04:21:49;7.63;;;2.10;;
59880;SDS011;45751;51.380;10.326;2023-01-30T04:24:16;4.43;;;1.80;;
59880;SDS011;45751;51.380;10.326;2023-01-30T04:26:43;9.10;;;4.28;;
59880;SDS011;45751;51.380;10.326;2023-01-30T04:29:10;6.85;;;2.38;;
59880;SDS011;45751;51.380;10.326;2023-01-30T04:31:38;7.05;;;3.10;;
59880;SDS011;45751;51.380;10.326;2023-01-30T04:34:15;9.20;;;3.92;;
59880;SDS011;45751;51.380;10.326;2023-01-30T04:36:43;9.52;;;4.53;;
59880;SDS011;45751;51.380;10.326;2023-01-30T04:39:10;9.82;;;3.83;;
59880;SDS011;45751;51.380;10.326;2023-01-30T04:41:39;5.75;;;2.40;;
59880;SDS011;45751;51.380;10.326;2023-01-30T04:44:06;3.22;;;1.02;;
59880;SDS011;45751;51.380;10.326;2023-01-30T04:46:56;10.70;;;2.60;;
59880;SDS011;45751;51.380;10.326;2023-01-30T04:49:23;6.15;;;2.78;;
59880;SDS011;45751;51.380;10.326;2023-01-30T04:51:50;4.90;;;1.17;;
59880;SDS011;45751;51.380;10.326;2023-01-30T04:54:17;10.98;;;4.50;;
59880;SDS011;45751;51.380;10.326;2023-01-30T04:56:43;4.75;;;1.65;;
59880;SDS011;45751;51.380;10.326;2023-01-30T04:59:10;10.48;;;3.58;;
59880;SDS011;45751;51.380;10.326;2023-01-30T05:01:41;6.85;;;3.28;;
59880;SDS011;45751;51.380;10.326;2023-01-30T05:04:08;5.43;;;2.53;;
59880;SDS011;45751;51.380;10.326;2023-01-30T05:06:35;8.85;;;3.60;;
59880;SDS011;45751;51.380;10.326;2023-01-30T05:09:02;5.80;;;1.60;;
59880;SDS011;45751;51.380;10.326;2023-01-30T05:11:31;5.10;;;2.65;;
59880;SDS011;45751;51.380;10.326;2023-01-30T05:13:59;6.75;;;2.25;;
59880;SDS011;45751;51.380;10.326;2023-01-30T05:16:26;7.57;;;3.38;;
59880;SDS011;45751;51.380;10.326;2023-01-30T05:18:53;5.43;;;2.60;;
59880;SDS011;45751;51.380;10.326;2023-01-30T05:21:21;5.95;;;2.47;;
59880;SDS011;45751;51.380;10.326;2023-01-30T05:23:51;6.65;;;3.15;;
59880;SDS011;45751;51.380;10.326;2023-01-30T05:26:18;8.02;;;4.03;;
59880;SDS011;45751;51.380;10.326;2023-01-30T05:28:49;4.80;;;1.98;;
59880;SDS011;45751;51.380;10.326;2023-01-30T05:31:18;7.43;;;2.75;;
59880;SDS011;45751;51.380;10.326;2023-01-30T05:33:46;4.25;;;2.13;;
59880;SDS011;45751;51.380;10.326;2023-01-30T05:36:16;5.75;;;2.45;;
59880;SDS011;45751;51.380;10.326;2023-01-30T05:38:44;6.07;;;2.35;;
59880;SDS011;45751;51.380;10.326;2023-01-30T05:41:11;4.13;;;1.58;;
59880;SDS011;45751;51.380;10.326;2023-01-30T05:43:39;6.07;;;2.08;;
59880;SDS011;45751;51.380;10.326;2023-01-30T05:46:08;4.93;;;2.17;;
59880;SDS011;45751;51.380;10.326;2023-01-30T05:48:36;7.82;;;2.17;;
59880;SDS011;45751;51.380;10.326;2023-01-30T05:51:03;2.33;;;1.25;;
59880;SDS011;45751;51.380;10.326;2023-01-30T05:53:31;4.57;;;1.77;;
59880;SDS011;45751;51.380;10.326;2023-01-30T05:56:03;4.22;;;1.30;;
59880;SDS011;45751;51.380;10.326;2023-01-30T05:58:34;3.95;;;1.63;;
59880;SDS011;45751;51.380;10.326;2023-01-30T06:01:01;2.30;;;0.68;;
59880;SDS011;45751;51.380;10.326;2023-01-30T06:03:29;4.50;;;1.88;;
59880;SDS011;45751;51.380;10.326;2023-01-30T06:05:56;1.30;;;0.50;;
59880;SDS011;45751;51.380;10.326;2023-01-30T06:08:23;2.67;;;0.90;;
59880;SDS011;45751;51.380;10.326;2023-01-30T06:10:50;5.82;;;2.60;;
59880;SDS011;45751;51.380;10.326;2023-01-30T06:13:16;3.80;;;3.00;;
59880;SDS011;45751;51.380;10.326;2023-01-30T06:15:43;7.22;;;2.42;;
59880;SDS011;45751;51.380;10.326;2023-01-30T06:18:11;2.85;;;1.52;;
59880;SDS011;45751;51.380;10.326;2023-01-30T06:20:38;5.22;;;1.55;;
59880;SDS011;45751;51.380;10.326;2023-01-30T06:23:04;5.88;;;1.13;;
59880;SDS011;45751;51.380;10.326;2023-01-30T06:25:31;3.90;;;1.33;;
59880;SDS011;45751;51.380;10.326;2023-01-30T06:27:58;10.48;;;2.95;;
59880;SDS011;45751;51.380;10.326;2023-01-30T06:30:25;2.70;;;1.10;;
59880;SDS011;45751;51.380;10.326;2023-01-30T06:32:52;1.70;;;0.75;;
59880;SDS011;45751;51.380;10.326;2023-01-30T06:35:19;3.78;;;1.45;;
59880;SDS011;45751;51.380;10.326;2023-01-30T06:37:46;6.50;;;2.28;;
59880;SDS011;45751;51.380;10.326;2023-01-30T06:40:13;8.25;;;1.58;;
59880;SDS011;45751;51.380;10.326;2023-01-30T06:42:46;3.53;;;1.38;;
59880;SDS011;45751;51.380;10.326;2023-01-30T06:45:15;1.92;;;0.70;;
59880;SDS011;45751;51.380;10.326;2023-01-30T06:47:47;5.20;;;1.33;;
59880;SDS011;45751;51.380;10.326;2023-01-30T06:50:19;2.53;;;0.68;;
59880;SDS011;45751;51.380;10.326;2023-01-30T06:52:47;6.78;;;1.77;;
59880;SDS011;45751;51.380;10.326;2023-01-30T06:55:17;3.70;;;1.23;;
59880;SDS011;45751;51.380;10.326;2023-01-30T06:57:46;6.10;;;1.30;;
59880;SDS011;45751;51.380;10.326;2023-01-30T07:00:18;2.90;;;0.98;;
59880;SDS011;45751;51.380;10.326;2023-01-30T07:02:46;3.70;;;1.10;;
59880;SDS011;45751;51.380;10.326;2023-01-30T07:05:13;1.20;;;0.55;;
59880;SDS011;45751;51.380;10.326;2023-01-30T07:07:40;0.40;;;0.25;;
59880;SDS011;45751;51.380;10.326;2023-01-30T07:10:07;1.75;;;0.57;;
59880;SDS011;45751;51.380;10.326;2023-01-30T07:12:34;4.00;;;0.77;;
59880;SDS011;45751;51.380;10.326;2023-01-30T07:15:02;3.03;;;0.80;;
59880;SDS011;45751;51.380;10.326;2023-01-30T07:17:32;5.38;;;1.08;;
59880;SDS011;45751;51.380;10.326;2023-01-30T07:19:59;3.05;;;1.02;;
59880;SDS011;45751;51.380;10.326;2023-01-30T07:22:25;2.17;;;0.80;;
59880;SDS011;45751;51.380;10.326;2023-01-30T07:24:52;3.17;;;1.23;;
59880;SDS011;45751;51.380;10.326;2023-01-30T07:27:19;2.00;;;0.68;;
59880;SDS011;45751;51.380;10.326;2023-01-30T07:29:46;3.38;;;0.93;;
59880;SDS011;45751;51.380;10.326;2023-01-30T07:32:15;3.25;;;1.13;;
59880;SDS011;45751;51.380;10.326;2023-01-30T07:34:46;2.30;;;1.23;;
59880;SDS011;45751;51.380;10.326;2023-01-30T07:37:13;2.42;;;0.95;;
59880;SDS011;45751;51.380;10.326;2023-01-30T07:39:40;3.45;;;1.00;;
59880;SDS011;45751;51.380;10.326;2023-01-30T07:42:07;7.38;;;1.98;;
59880;SDS011;45751;51.380;10.326;2023-01-30T07:44:34;2.30;;;0.65;;
59880;SDS011;45751;51.380;10.326;2023-01-30T07:47:01;2.17;;;1.05;;
59880;SDS011;45751;51.380;10.326;2023-01-30T07:49:28;4.35;;;1.25;;
59880;SDS011;45751;51.380;10.326;2023-01-30T07:51:55;1.90;;;0.57;;
59880;SDS011;45751;51.380;10.326;2023-01-30T07:54:22;1.25;;;0.68;;
59880;SDS011;45751;51.380;10.326;2023-01-30T07:56:49;2.55;;;0.95;;
59880;SDS011;45751;51.380;10.326;2023-01-30T07:59:16;1.85;;;0.68;;
59880;SDS011;45751;51.380;10.326;2023-01-30T08:01:43;2.90;;;1.17;;
59880;SDS011;45751;51.380;10.326;2023-01-30T08:04:09;4.38;;;0.88;;
59880;SDS011;45751;51.380;10.326;2023-01-30T08:06:36;4.90;;;1.25;;
59880;SDS011;45751;51.380;10.326;2023-01-30T08:09:05;3.45;;;0.95;;
59880;SDS011;45751;51.380;10.326;2023-01-30T08:11:32;4.10;;;1.15;;
59880;SDS011;45751;51.380;10.326;2023-01-30T08:14:00;2.33;;;0.70;;
59880;SDS011;45751;51.380;10.326;2023-01-30T08:16:27;2.42;;;0.80;;
59880;SDS011;45751;51.380;10.326;2023-01-30T08:18:54;1.65;;;0.52;;
59880;SDS011;45751;51.380;10.326;2023-01-30T08:21:21;0.60;;;0.40;;
59880;SDS011;45751;51.380;10.326;2023-01-30T08:23:48;2.53;;;0.68;;
59880;SDS011;45751;51.380;10.326;2023-01-30T08:26:15;4.65;;;2.03;;
59880;SDS011;45751;51.380;10.326;2023-01-30T08:28:42;1.92;;;0.60;;
59880;SDS011;45751;51.380;10.326;2023-01-30T08:31:10;1.98;;;1.00;;
59880;SDS011;45751;51.380;10.326;2023-01-30T08:33:38;3.85;;;1.92;;
59880;SDS011;45751;51.380;10.326;2023-01-30T08:36:05;2.92;;;1.10;;
59880;SDS011;45751;51.380;10.326;2023-01-30T08:38:32;3.50;;;1.10;;
59880;SDS011;45751;51.380;10.326;2023-01-30T08:40:59;4.00;;;1.25;;
59880;SDS011;45751;51.380;10.326;2023-01-30T08:43:26;4.45;;;1.08;;
59880;SDS011;45751;51.380;10.326;2023-01-30T08:45:53;3.75;;;0.80;;
59880;SDS011;45751;51.380;10.326;2023-01-30T08:48:21;3.92;;;1.27;;
59880;SDS011;45751;51.380;10.326;2023-01-30T08:50:52;2.08;;;1.15;;
59880;SDS011;45751;51.380;10.326;2023-01-30T08:53:20;1.17;;;0.40;;
59880;SDS011;45751;51.380;10.326;2023-01-30T08:55:50;3.70;;;1.05;;
59880;SDS011;45751;51.380;10.326;2023-01-30T08:58:19;3.40;;;0.82;;
59880;SDS011;45751;51.380;10.326;2023-01-30T09:00:46;3.75;;;1.20;;
59880;SDS011;45751;51.380;10.326;2023-01-30T09:03:15;1.13;;;0.50;;
59880;SDS011;45751;51.380;10.326;2023-01-30T09:05:43;3.45;;;1.17;;
59880;SDS011;45751;51.380;10.326;2023-01-30T09:08:10;3.75;;;0.95;;
59880;SDS011;45751;51.380;10.326;2023-01-30T09:10:37;2.08;;;1.08;;
59880;SDS011;45751;51.380;10.326;2023-01-30T09:13:04;1.98;;;0.80;;
59880;SDS011;45751;51.380;10.326;2023-01-30T09:15:34;2.47;;;1.07;;
59880;SDS011;45751;51.380;10.326;2023-01-30T09:18:01;2.97;;;0.70;;
59880;SDS011;45751;51.380;10.326;2023-01-30T09:20:28;2.55;;;0.73;;
59880;SDS011;45751;51.380;10.326;2023-01-30T09:22:55;3.05;;;0.80;;
59880;SDS011;45751;51.380;10.326;2023-01-30T09:25:22;1.25;;;0.40;;
59880;SDS011;45751;51.380;10.326;2023-01-30T09:27:49;0.70;;;0.38;;
59880;SDS011;45751;51.380;10.326;2023-01-30T09:30:16;1.77;;;0.60;;
59880;SDS011;45751;51.380;10.326;2023-01-30T09:32:44;1.55;;;0.63;;
59880;SDS011;45751;51.380;10.326;2023-01-30T09:35:11;3.00;;;0.98;;
59880;SDS011;45751;51.380;10.326;2023-01-30T09:37:45;2.10;;;0.45;;
59880;SDS011;45751;51.380;10.326;2023-01-30T09:40:13;1.92;;;0.57;;
59880;SDS011;45751;51.380;10.326;2023-01-30T09:45:34;1.70;;;0.43;;
59880;SDS011;45751;51.380;10.326;2023-01-30T09:55:41;0.57;;;0.32;;
59880;SDS011;45751;51.380;10.326;2023-01-30T09:58:18;1.50;;;0.73;;
59880;SDS011;45751;51.380;10.326;2023-01-30T10:00:47;1.85;;;0.68;;
59880;SDS011;45751;51.380;10.326;2023-01-30T10:06:05;2.30;;;1.55;;
59880;SDS011;45751;51.380;10.326;2023-01-30T10:26:22;4.55;;;0.77;;
59880;SDS011;45751;51.380;10.326;2023-01-30T10:28:57;4.53;;;0.95;;
59880;SDS011;45751;51.380;10.326;2023-01-30T10:34:06;11.32;;;1.85;;
59880;SDS011;45751;51.380;10.326;2023-01-30T10:36:58;4.10;;;1.27;;
59880;SDS011;45751;51.380;10.326;2023-01-30T10:42:38;3.63;;;1.20;;
59880;SDS011;45751;51.380;10.326;2023-01-30T10:45:16;4.38;;;0.70;;
59880;SDS011;45751;51.380;10.326;2023-01-30T10:50:29;6.03;;;0.47;;
59880;SDS011;45751;51.380;10.326;2023-01-30T10:55:50;2.47;;;1.02;;
59880;SDS011;45751;51.380;10.326;2023-01-30T11:06:31;5.30;;;0.95;;
59880;SDS011;45751;51.380;10.326;2023-01-30T11:09:00;4.38;;;0.98;;
59880;SDS011;45751;51.380;10.326;2023-01-30T11:11:29;4.05;;;0.95;;
59880;SDS011;45751;51.380;10.326;2023-01-30T11:14:08;3.45;;;0.88;;
59880;SDS011;45751;51.380;10.326;2023-01-30T11:16:44;6.30;;;1.48;;
59880;SDS011;45751;51.380;10.326;2023-01-30T11:19:13;3.60;;;0.98;;
59880;SDS011;45751;51.380;10.326;2023-01-30T11:21:47;3.35;;;0.80;;
59880;SDS011;45751;51.380;10.326;2023-01-30T11:24:18;3.83;;;0.88;;
59880;SDS011;45751;51.380;10.326;2023-01-30T11:27:08;5.22;;;1.17;;
59880;SDS011;45751;51.380;10.326;2023-01-30T11:29:39;6.38;;;1.63;;
59880;SDS011;45751;51.380;10.326;2023-01-30T11:32:18;3.65;;;0.82;;
59880;SDS011;45751;51.380;10.326;2023-01-30T11:35:34;4.07;;;1.33;;
59880;SDS011;45751;51.380;10.326;2023-01-30T11:37:58;17.45;;;1.45;;
59880;SDS011;45751;51.380;10.326;2023-01-30T11:40:46;2.33;;;0.70;;
59880;SDS011;45751;51.380;10.326;2023-01-30T11:43:13;3.35;;;1.35;;
59880;SDS011;45751;51.380;10.326;2023-01-30T11:45:41;3.65;;;1.20;;
59880;SDS011;45751;51.380;10.326;2023-01-30T11:48:13;3.17;;;0.90;;
59880;SDS011;45751;51.380;10.326;2023-01-30T11:51:05;3.20;;;0.82;;
59880;SDS011;45751;51.380;10.326;2023-01-30T11:53:40;2.00;;;0.95;;
59880;SDS011;45751;51.380;10.326;2023-01-30T11:56:14;3.75;;;1.67;;
59880;SDS011;45751;51.380;10.326;2023-01-30T11:58:46;2.08;;;0.70;;
59880;SDS011;45751;51.380;10.326;2023-01-30T12:01:25;3.75;;;1.25;;
59880;SDS011;45751;51.380;10.326;2023-01-30T12:04:04;2.47;;;0.90;;
59880;SDS011;45751;51.380;10.326;2023-01-30T12:06:36;2.88;;;1.23;;
59880;SDS011;45751;51.380;10.326;2023-01-30T12:09:05;6.88;;;1.65;;
59880;SDS011;45751;51.380;10.326;2023-01-30T12:11:52;7.55;;;1.05;;
59880;SDS011;45751;51.380;10.326;2023-01-30T12:19:55;5.30;;;1.60;;
59880;SDS011;45751;51.380;10.326;2023-01-30T12:22:36;4.65;;;1.27;;
59880;SDS011;45751;51.380;10.326;2023-01-30T12:25:21;11.93;;;2.53;;
59880;SDS011;45751;51.380;10.326;2023-01-30T12:27:56;4.80;;;1.27;;
59880;SDS011;45751;51.380;10.326;2023-01-30T12:30:47;1.77;;;0.80;;
59880;SDS011;45751;51.380;10.326;2023-01-30T12:33:20;10.65;;;1.42;;
59880;SDS011;45751;51.380;10.326;2023-01-30T12:39:04;14.77;;;2.25;;
59880;SDS011;45751;51.380;10.326;2023-01-30T12:41:55;7.60;;;2.20;;
59880;SDS011;45751;51.380;10.326;2023-01-30T12:47:47;4.75;;;1.92;;
59880;SDS011;45751;51.380;10.326;2023-01-30T12:50:24;7.32;;;1.85;;
59880;SDS011;45751;51.380;10.326;2023-01-30T13:03:54;3.58;;;1.15;;
59880;SDS011;45751;51.380;10.326;2023-01-30T13:06:34;13.07;;;1.65;;
59880;SDS011;45751;51.380;10.326;2023-01-30T13:09:41;11.05;;;1.98;;
59880;SDS011;45751;51.380;10.326;2023-01-30T13:12:16;7.85;;;1.40;;
59880;SDS011;45751;51.380;10.326;2023-01-30T13:15:01;13.30;;;1.92;;
59880;SDS011;45751;51.380;10.326;2023-01-30T13:17:43;6.57;;;1.38;;
59880;SDS011;45751;51.380;10.326;2023-01-30T13:23:00;11.70;;;2.58;;
59880;SDS011;45751;51.380;10.326;2023-01-30T13:25:40;6.65;;;1.10;;
59880;SDS011;45751;51.380;10.326;2023-01-30T13:28:14;2.00;;;0.98;;
59880;SDS011;45751;51.380;10.326;2023-01-30T13:30:43;7.80;;;2.38;;
59880;SDS011;45751;51.380;10.326;2023-01-30T13:33:14;8.55;;;0.77;;
59880;SDS011;45751;51.380;10.326;2023-01-30T13:35:55;5.07;;;1.30;;
59880;SDS011;45751;51.380;10.326;2023-01-30T13:38:39;6.07;;;1.30;;
59880;SDS011;45751;51.380;10.326;2023-01-30T13:41:16;3.25;;;1.10;;
59880;SDS011;45751;51.380;10.326;2023-01-30T13:43:46;4.00;;;1.67;;
59880;SDS011;45751;51.380;10.326;2023-01-30T13:46:18;9.25;;;2.15;;
59880;SDS011;45751;51.380;10.326;2023-01-30T13:54:32;8.25;;;1.88;;
59880;SDS011;45751;51.380;10.326;2023-01-30T14:10:55;4.45;;;1.55;;
59880;SDS011;45751;51.380;10.326;2023-01-30T14:13:23;1.92;;;0.77;;
59880;SDS011;45751;51.380;10.326;2023-01-30T14:18:29;1.52;;;0.90;;
59880;SDS011;45751;51.380;10.326;2023-01-30T14:21:21;5.57;;;1.30;;
59880;SDS011;45751;51.380;10.326;2023-01-30T14:23:54;2.10;;;0.70;;
59880;SDS011;45751;51.380;10.326;2023-01-30T14:34:43;1.90;;;0.90;;
59880;SDS011;45751;51.380;10.326;2023-01-30T14:37:44;4.43;;;1.25;;
59880;SDS011;45751;51.380;10.326;2023-01-30T14:45:41;3.67;;;1.00;;
59880;SDS011;45751;51.380;10.326;2023-01-30T14:50:46;17.05;;;2.78;;
59880;SDS011;45751;51.380;10.326;2023-01-30T14:53:15;4.40;;;0.93;;
59880;SDS011;45751;51.380;10.326;2023-01-30T14:55:43;3.70;;;1.05;;
59880;SDS011;45751;51.380;10.326;2023-01-30T14:58:13;3.53;;;1.55;;
59880;SDS011;45751;51.380;10.326;2023-01-30T15:00:43;4.03;;;1.80;;
59880;SDS011;45751;51.380;10.326;2023-01-30T15:03:17;3.60;;;1.00;;
59880;SDS011;45751;51.380;10.326;2023-01-30T15:05:45;1.67;;;0.80;;
59880;SDS011;45751;51.380;10.326;2023-01-30T15:27:29;2.63;;;1.35;;
59880;SDS011;45751;51.380;10.326;2023-01-30T15:30:24;4.60;;;1.13;;
59880;SDS011;45751;51.380;10.326;2023-01-30T15:33:18;4.07;;;1.00;;
59880;SDS011;45751;51.380;10.326;2023-01-30T15:35:56;6.28;;;1.25;;
59880;SDS011;45751;51.380;10.326;2023-01-30T15:38:24;14.77;;;1.67;;
59880;SDS011;45751;51.380;10.326;2023-01-30T15:40:54;1.13;;;0.50;;
59880;SDS011;45751;51.380;10.326;2023-01-30T15:46:29;2.97;;;0.82;;
59880;SDS011;45751;51.380;10.326;2023-01-30T15:51:33;4.38;;;1.90;;
59880;SDS011;45751;51.380;10.326;2023-01-30T15:54:01;8.93;;;2.95;;
59880;SDS011;45751;51.380;10.326;2023-01-30T15:56:34;3.15;;;0.90;;
59880;SDS011;45751;51.380;10.326;2023-01-30T15:59:01;3.92;;;0.60;;
59880;SDS011;45751;51.380;10.326;2023-01-30T16:01:28;12.52;;;1.02;;
59880;SDS011;45751;51.380;10.326;2023-01-30T16:03:56;3.30;;;1.15;;
59880;SDS011;45751;51.380;10.326;2023-01-30T16:06:32;7.60;;;1.33;;
59880;SDS011;45751;51.380;10.326;2023-01-30T16:09:00;3.92;;;1.33;;
59880;SDS011;45751;51.380;10.326;2023-01-30T16:14:03;9.02;;;1.17;;
59880;SDS011;45751;51.380;10.326;2023-01-30T16:16:30;6.03;;;1.38;;
59880;SDS011;45751;51.380;10.326;2023-01-30T16:19:03;3.72;;;1.40;;
59880;SDS011;45751;51.380;10.326;2023-01-30T16:21:36;2.20;;;1.00;;
59880;SDS011;45751;51.380;10.326;2023-01-30T16:24:21;3.47;;;0.73;;
59880;SDS011;45751;51.380;10.326;2023-01-30T16:26:53;2.65;;;1.00;;
59880;SDS011;45751;51.380;10.326;2023-01-30T16:29:26;2.90;;;1.42;;
59880;SDS011;45751;51.380;10.326;2023-01-30T16:31:55;6.30;;;0.65;;
59880;SDS011;45751;51.380;10.326;2023-01-30T16:34:33;12.40;;;1.58;;
59880;SDS011;45751;51.380;10.326;2023-01-30T16:37:05;8.05;;;1.77;;
59880;SDS011;45751;51.380;10.326;2023-01-30T16:39:42;3.60;;;1.07;;
59880;SDS011;45751;51.380;10.326;2023-01-30T16:42:19;3.95;;;1.65;;
59880;SDS011;45751;51.380;10.326;2023-01-30T16:44:50;2.92;;;1.00;;
59880;SDS011;45751;51.380;10.326;2023-01-30T16:47:24;5.22;;;1.17;;
59880;SDS011;45751;51.380;10.326;2023-01-30T16:49:54;0.88;;;0.43;;
59880;SDS011;45751;51.380;10.326;2023-01-30T16:52:33;2.83;;;0.80;;
59880;SDS011;45751;51.380;10.326;2023-01-30T16:55:04;7.15;;;1.40;;
59880;SDS011;45751;51.380;10.326;2023-01-30T17:00:06;8.57;;;1.50;;
59880;SDS011;45751;51.380;10.326;2023-01-30T17:02:48;5.13;;;1.25;;
59880;SDS011;45751;51.380;10.326;2023-01-30T17:05:24;5.45;;;0.70;;
59880;SDS011;45751;51.380;10.326;2023-01-30T17:07:54;6.25;;;1.65;;
59880;SDS011;45751;51.380;10.326;2023-01-30T17:12:56;3.03;;;0.68;;
59880;SDS011;45751;51.380;10.326;2023-01-30T17:15:24;3.22;;;0.88;;
59880;SDS011;45751;51.380;10.326;2023-01-30T17:17:53;3.90;;;1.70;;
59880;SDS011;45751;51.380;10.326;2023-01-30T17:20:20;2.38;;;0.85;;
59880;SDS011;45751;51.380;10.326;2023-01-30T17:22:47;4.10;;;1.20;;
59880;SDS011;45751;51.380;10.326;2023-01-30T17:25:30;6.88;;;1.48;;
59880;SDS011;45751;51.380;10.326;2023-01-30T17:28:01;6.65;;;1.38;;
59880;SDS011;45751;51.380;10.326;2023-01-30T17:30:28;5.63;;;1.13;;
59880;SDS011;45751;51.380;10.326;2023-01-30T17:32:55;12.20;;;3.20;;
59880;SDS011;45751;51.380;10.326;2023-01-30T17:35:22;3.30;;;1.00;;
59880;SDS011;45751;51.380;10.326;2023-01-30T17:37:49;4.80;;;0.60;;
59880;SDS011;45751;51.380;10.326;2023-01-30T17:40:35;3.70;;;1.25;;
59880;SDS011;45751;51.380;10.326;2023-01-30T17:43:03;3.90;;;1.60;;
59880;SDS011;45751;51.380;10.326;2023-01-30T17:45:30;7.90;;;2.47;;
59880;SDS011;45751;51.380;10.326;2023-01-30T17:47:57;2.47;;;0.75;;
59880;SDS011;45751;51.380;10.326;2023-01-30T17:50:25;4.03;;;0.85;;
59880;SDS011;45751;51.380;10.326;2023-01-30T17:52:53;3.10;;;0.73;;
59880;SDS011;45751;51.380;10.326;2023-01-30T17:55:20;5.82;;;1.73;;
59880;SDS011;45751;51.380;10.326;2023-01-30T17:57:48;7.25;;;1.13;;
59880;SDS011;45751;51.380;10.326;2023-01-30T18:00:17;13.73;;;1.55;;
59880;SDS011;45751;51.380;10.326;2023-01-30T18:05:13;4.85;;;1.50;;